createdAt,value
2017-11-29T00:01:36.916Z,77.50
2017-11-29T00:04:04.365Z,77.50
2017-11-29T00:06:31.780Z,77.70
2017-11-29T00:08:59.233Z,77.80
2017-11-29T00:11:27.046Z,77.80
2017-11-29T00:13:54.464Z,77.80
2017-11-29T00:16:22.776Z,77.90
2017-11-29T00:18:50.233Z,78.00
2017-11-29T00:21:17.660Z,78.10
2017-11-29T00:23:45.571Z,78.20
2017-11-29T00:26:13.001Z,78.20
2017-11-29T00:28:41.068Z,78.20
2017-11-29T00:31:09.204Z,78.40
2017-11-29T00:33:36.641Z,78.40
2017-11-29T00:36:04.084Z,78.40
2017-11-29T00:38:31.653Z,78.40
2017-11-29T00:40:59.137Z,78.40
2017-11-29T00:43:26.597Z,78.10
2017-11-29T00:45:54.081Z,78.20
2017-11-29T00:48:21.512Z,78.30
2017-11-29T00:50:48.959Z,78.50
2017-11-29T00:53:16.381Z,78.50
2017-11-29T00:55:45.278Z,78.60
2017-11-29T00:58:12.724Z,79.00
2017-11-29T01:00:40.147Z,78.90
2017-11-29T01:03:07.632Z,78.70
2017-11-29T01:05:35.110Z,78.80
2017-11-29T01:08:02.569Z,79.00
2017-11-29T01:10:30.006Z,79.10
2017-11-29T01:12:57.485Z,79.20
2017-11-29T01:15:24.925Z,79.30
2017-11-29T01:17:52.379Z,79.40
2017-11-29T01:20:19.860Z,79.30
2017-11-29T01:22:47.268Z,79.30
2017-11-29T01:25:14.699Z,79.20
2017-11-29T01:27:42.853Z,79.00
2017-11-29T01:30:10.301Z,78.90
2017-11-29T01:32:37.740Z,78.90
2017-11-29T01:35:05.595Z,79.00
2017-11-29T01:37:33.070Z,79.00
2017-11-29T01:40:01.006Z,78.90
2017-11-29T01:42:28.455Z,78.90
2017-11-29T01:44:55.933Z,78.90
2017-11-29T01:47:23.383Z,78.70
2017-11-29T01:49:50.809Z,78.60
2017-11-29T01:52:18.270Z,78.40
2017-11-29T01:54:45.751Z,78.40
2017-11-29T01:57:13.197Z,78.40
2017-11-29T01:59:40.629Z,78.60
2017-11-29T02:02:08.495Z,78.60
2017-11-29T02:04:36.529Z,78.60
2017-11-29T02:07:03.953Z,78.60
2017-11-29T02:09:31.431Z,78.30
2017-11-29T02:11:59.008Z,78.40
2017-11-29T02:14:26.447Z,78.60
2017-11-29T02:16:53.907Z,78.60
2017-11-29T02:19:21.422Z,78.70
2017-11-29T02:21:48.872Z,78.70
2017-11-29T02:24:16.310Z,78.70
2017-11-29T02:26:43.764Z,78.60
2017-11-29T02:29:11.233Z,78.50
2017-11-29T02:31:38.705Z,78.40
2017-11-29T02:34:06.125Z,78.40
2017-11-29T02:36:34.036Z,78.40
2017-11-29T02:39:01.507Z,78.40
2017-11-29T02:41:40.741Z,78.50
2017-11-29T02:44:08.910Z,78.70
2017-11-29T02:46:36.352Z,78.80
2017-11-29T02:49:03.813Z,78.70
2017-11-29T02:51:31.307Z,78.70
2017-11-29T02:53:58.735Z,78.80
2017-11-29T02:56:28.121Z,79.00
2017-11-29T02:58:55.952Z,79.00
2017-11-29T03:01:23.403Z,79.00
2017-11-29T03:03:50.868Z,79.00
2017-11-29T03:06:18.290Z,78.70
2017-11-29T03:08:45.738Z,78.80
2017-11-29T03:11:13.551Z,78.80
2017-11-29T03:13:41.313Z,78.80
2017-11-29T03:16:08.741Z,78.90
2017-11-29T03:18:36.284Z,79.10
2017-11-29T03:21:05.331Z,79.10
2017-11-29T03:23:32.801Z,79.10
2017-11-29T03:26:00.260Z,79.10
2017-11-29T03:28:27.737Z,79.10
2017-11-29T03:30:55.183Z,79.10
2017-11-29T03:33:22.642Z,79.30
2017-11-29T03:35:50.118Z,79.40
2017-11-29T03:38:17.567Z,79.40
2017-11-29T03:40:44.982Z,79.40
2017-11-29T03:43:12.917Z,79.20
2017-11-29T03:45:40.380Z,79.20
2017-11-29T03:48:08.277Z,79.20
2017-11-29T03:50:36.118Z,79.10
2017-11-29T03:53:04.332Z,79.10
2017-11-29T03:55:32.203Z,79.00
2017-11-29T03:57:59.652Z,79.00
2017-11-29T04:00:27.073Z,79.00
2017-11-29T04:02:54.544Z,79.20
2017-11-29T04:05:21.997Z,79.30
2017-11-29T04:07:49.443Z,79.40
2017-11-29T04:10:16.885Z,79.50
2017-11-29T04:12:44.724Z,79.50
2017-11-29T04:15:12.241Z,79.50
2017-11-29T04:17:39.719Z,79.30
2017-11-29T04:20:07.132Z,79.40
2017-11-29T04:22:35.009Z,79.70
2017-11-29T04:25:03.330Z,79.70
2017-11-29T04:27:30.791Z,79.70
2017-11-29T04:29:58.255Z,79.70
2017-11-29T04:32:25.698Z,79.70
2017-11-29T04:34:53.128Z,79.80
2017-11-29T04:37:20.555Z,79.60
2017-11-29T04:39:47.993Z,79.50
2017-11-29T04:42:15.436Z,79.70
2017-11-29T04:44:43.553Z,79.60
2017-11-29T04:47:10.980Z,79.40
2017-11-29T04:49:38.465Z,79.50
2017-11-29T04:52:06.774Z,79.40
2017-11-29T04:54:34.192Z,79.50
2017-11-29T04:57:01.691Z,79.40
2017-11-29T04:59:29.147Z,79.40
2017-11-29T05:01:56.680Z,79.10
2017-11-29T05:04:24.137Z,79.20
2017-11-29T05:06:51.598Z,79.20
2017-11-29T05:09:19.034Z,79.30
2017-11-29T05:11:46.923Z,79.70
2017-11-29T05:14:14.353Z,79.70
2017-11-29T05:16:41.801Z,79.70
2017-11-29T05:19:09.256Z,79.70
2017-11-29T05:21:36.674Z,79.70
2017-11-29T05:24:04.162Z,79.70
2017-11-29T05:26:31.597Z,79.70
2017-11-29T05:28:59.059Z,79.60
2017-11-29T05:31:26.470Z,79.40
2017-11-29T05:33:54.011Z,79.60
2017-11-29T05:36:21.454Z,79.80
2017-11-29T05:38:48.908Z,79.90
2017-11-29T05:41:16.385Z,80.00
2017-11-29T05:43:44.591Z,80.00
2017-11-29T05:46:12.108Z,80.00
2017-11-29T05:48:40.937Z,79.90
2017-11-29T05:51:08.369Z,80.10
2017-11-29T05:53:35.871Z,79.90
2017-11-29T05:56:03.389Z,79.80
2017-11-29T05:58:30.807Z,79.90
2017-11-29T06:00:58.598Z,79.80
2017-11-29T06:03:26.457Z,79.70
2017-11-29T06:05:54.328Z,79.80
2017-11-29T06:08:22.176Z,79.70
2017-11-29T06:10:49.609Z,79.60
2017-11-29T06:13:17.049Z,79.70
2017-11-29T06:15:44.509Z,79.70
2017-11-29T06:18:11.985Z,79.60
2017-11-29T06:20:39.431Z,79.50
2017-11-29T06:23:06.884Z,79.50
2017-11-29T06:25:34.329Z,79.50
2017-11-29T06:28:02.289Z,79.60
2017-11-29T06:30:29.727Z,79.60
2017-11-29T06:32:57.165Z,79.70
2017-11-29T06:35:24.617Z,79.60
2017-11-29T06:37:52.105Z,79.70
2017-11-29T06:40:21.523Z,79.80
2017-11-29T06:42:49.805Z,79.80
2017-11-29T06:45:17.360Z,79.70
2017-11-29T06:47:44.795Z,79.70
2017-11-29T06:50:12.268Z,79.70
2017-11-29T06:52:39.737Z,79.70
2017-11-29T06:55:07.176Z,79.70
2017-11-29T06:57:34.614Z,79.70
2017-11-29T07:00:02.435Z,79.70
2017-11-29T07:02:29.885Z,79.70
2017-11-29T07:04:58.152Z,79.60
2017-11-29T07:07:25.593Z,79.60
2017-11-29T07:09:53.464Z,79.60
2017-11-29T07:12:21.317Z,79.60
2017-11-29T07:14:48.742Z,79.60
2017-11-29T07:17:16.166Z,79.50
2017-11-29T07:19:43.596Z,79.50
2017-11-29T07:22:11.510Z,79.20
2017-11-29T07:24:38.945Z,79.20
2017-11-29T07:27:06.769Z,79.10
2017-11-29T07:29:34.221Z,79.10
2017-11-29T07:32:01.678Z,79.20
2017-11-29T07:34:29.163Z,79.10
2017-11-29T07:36:56.611Z,78.90
2017-11-29T07:39:24.061Z,79.10
2017-11-29T07:41:51.534Z,79.20
2017-11-29T07:44:18.988Z,79.30
2017-11-29T07:46:46.438Z,79.30
2017-11-29T07:49:13.901Z,79.40
2017-11-29T07:51:41.460Z,79.40
2017-11-29T07:54:08.864Z,79.40
2017-11-29T07:56:36.310Z,79.40
2017-11-29T07:59:03.753Z,79.30
2017-11-29T08:01:31.180Z,79.30
2017-11-29T08:03:59.044Z,79.20
2017-11-29T08:06:26.544Z,79.20
2017-11-29T08:08:54.828Z,79.20
2017-11-29T08:11:22.258Z,79.20
2017-11-29T08:13:49.889Z,79.10
2017-11-29T08:16:18.152Z,79.00
2017-11-29T08:18:45.584Z,79.00
2017-11-29T08:21:13.009Z,79.10
2017-11-29T08:23:40.850Z,78.80
2017-11-29T08:26:08.298Z,78.80
2017-11-29T08:28:35.739Z,78.80
2017-11-29T08:31:03.213Z,78.70
2017-11-29T08:33:30.661Z,78.70
2017-11-29T08:35:58.129Z,78.70
2017-11-29T08:38:25.581Z,78.60
2017-11-29T08:40:53.007Z,78.60
2017-11-29T08:43:20.434Z,77.80
2017-11-29T08:45:48.218Z,77.90
2017-11-29T08:48:15.654Z,78.30
2017-11-29T08:50:43.095Z,78.30
2017-11-29T08:53:11.393Z,78.30
2017-11-29T08:55:38.864Z,78.60
2017-11-29T08:58:06.266Z,78.80
2017-11-29T09:00:34.736Z,78.10
2017-11-29T09:03:02.191Z,78.10
2017-11-29T09:05:29.631Z,77.90
2017-11-29T09:07:57.061Z,77.50
2017-11-29T09:10:24.514Z,77.40
2017-11-29T09:12:52.349Z,76.90
2017-11-29T09:15:19.881Z,76.90
2017-11-29T09:17:47.312Z,76.90
2017-11-29T09:20:15.136Z,77.40
2017-11-29T09:22:42.581Z,77.40
2017-11-29T09:25:10.778Z,77.50
2017-11-29T09:27:38.212Z,77.40
2017-11-29T09:30:05.638Z,77.20
2017-11-29T09:32:33.536Z,77.20
2017-11-29T09:35:00.990Z,77.20
2017-11-29T09:37:28.806Z,77.10
2017-11-29T09:39:56.255Z,76.70
2017-11-29T09:42:23.674Z,76.60
2017-11-29T09:44:51.161Z,76.10
2017-11-29T09:47:18.611Z,75.90
2017-11-29T09:49:46.042Z,76.10
2017-11-29T09:52:13.949Z,77.10
2017-11-29T09:54:41.397Z,77.10
2017-11-29T09:57:08.838Z,77.20
2017-11-29T09:59:36.677Z,77.30
2017-11-29T10:02:04.121Z,77.30
2017-11-29T10:04:31.576Z,77.30
2017-11-29T10:06:58.969Z,76.40
2017-11-29T10:09:26.525Z,76.30
2017-11-29T10:11:54.253Z,76.30
2017-11-29T10:14:21.667Z,75.90
2017-11-29T10:16:49.291Z,76.40
2017-11-29T10:19:16.717Z,76.90
2017-11-29T10:21:44.544Z,76.60
2017-11-29T10:24:12.010Z,76.60
2017-11-29T10:26:39.438Z,76.10
2017-11-29T10:29:06.893Z,76.20
2017-11-29T10:31:34.330Z,75.60
2017-11-29T10:34:02.246Z,75.30
2017-11-29T10:36:29.704Z,75.30
2017-11-29T10:38:57.134Z,75.50
2017-11-29T10:41:24.712Z,75.40
2017-11-29T10:43:52.170Z,75.50
2017-11-29T10:46:21.286Z,75.00
2017-11-29T10:48:48.790Z,75.10
2017-11-29T10:51:16.229Z,75.50
2017-11-29T10:53:43.652Z,75.30
2017-11-29T10:56:11.128Z,75.40
2017-11-29T10:58:38.565Z,74.70
2017-11-29T11:01:06.054Z,74.80
2017-11-29T11:03:33.518Z,74.60
2017-11-29T11:06:00.979Z,74.60
2017-11-29T11:08:28.455Z,74.80
2017-11-29T11:10:55.884Z,74.70
2017-11-29T11:13:23.329Z,74.20
2017-11-29T11:15:51.165Z,73.40
2017-11-29T11:18:18.704Z,73.30
2017-11-29T11:20:46.156Z,73.30
2017-11-29T11:23:13.574Z,73.00
2017-11-29T11:25:41.427Z,74.10
2017-11-29T11:28:08.878Z,74.10
2017-11-29T11:30:36.310Z,74.50
2017-11-29T11:33:03.755Z,74.40
2017-11-29T11:35:31.173Z,74.30
2017-11-29T11:37:58.718Z,74.30
2017-11-29T11:40:26.155Z,74.60
2017-11-29T11:42:53.621Z,72.70
2017-11-29T11:45:21.059Z,73.10
2017-11-29T11:47:48.492Z,72.70
2017-11-29T11:50:15.929Z,71.60
2017-11-29T11:52:43.364Z,71.50
2017-11-29T11:55:10.815Z,71.00
2017-11-29T11:57:38.296Z,71.20
2017-11-29T12:00:06.081Z,71.50
2017-11-29T12:02:33.618Z,71.50
2017-11-29T12:05:01.087Z,71.50
2017-11-29T12:07:29.077Z,70.40
2017-11-29T12:09:56.516Z,70.50
2017-11-29T12:12:23.932Z,70.70
2017-11-29T12:14:51.765Z,69.10
2017-11-29T12:17:19.195Z,69.10
2017-11-29T12:19:46.678Z,69.40
2017-11-29T12:22:14.102Z,69.50
2017-11-29T12:24:42.018Z,69.90
2017-11-29T12:27:09.576Z,69.90
2017-11-29T12:29:37.545Z,70.10
2017-11-29T12:32:05.000Z,70.40
2017-11-29T12:34:32.469Z,70.30
2017-11-29T12:36:59.919Z,69.70
2017-11-29T12:39:27.348Z,69.70
2017-11-29T12:41:55.178Z,69.50
2017-11-29T12:44:22.631Z,69.50
2017-11-29T12:46:50.057Z,68.40
2017-11-29T12:49:29.229Z,68.50
2017-11-29T12:51:56.656Z,68.10
2017-11-29T12:54:24.135Z,68.60
2017-11-29T12:56:51.594Z,68.70
2017-11-29T12:59:19.014Z,68.90
2017-11-29T13:01:47.967Z,68.60
2017-11-29T13:04:15.429Z,68.60
2017-11-29T13:06:42.894Z,68.90
2017-11-29T13:09:10.350Z,69.00
2017-11-29T13:11:37.783Z,68.90
2017-11-29T13:14:05.238Z,68.10
2017-11-29T13:16:33.047Z,68.00
2017-11-29T13:19:00.496Z,68.00
2017-11-29T13:21:27.970Z,66.90
2017-11-29T13:23:55.424Z,67.60
2017-11-29T13:26:22.853Z,66.70
2017-11-29T13:28:50.345Z,66.10
2017-11-29T13:31:17.777Z,64.90
2017-11-29T13:33:45.208Z,63.10
2017-11-29T13:36:12.639Z,65.20
2017-11-29T13:38:40.089Z,64.60
2017-11-29T13:41:07.525Z,65.10
2017-11-29T13:43:35.661Z,65.10
2017-11-29T13:46:03.088Z,64.80
2017-11-29T13:48:30.576Z,64.90
2017-11-29T13:50:58.083Z,64.60
2017-11-29T13:53:26.068Z,64.80
2017-11-29T13:55:53.548Z,64.80
2017-11-29T13:58:20.982Z,64.50
2017-11-29T14:00:48.442Z,65.30
2017-11-29T14:03:16.275Z,65.00
2017-11-29T14:05:43.701Z,65.00
2017-11-29T14:08:11.186Z,64.30
2017-11-29T14:10:38.641Z,64.90
2017-11-29T14:13:06.050Z,65.00
2017-11-29T14:15:35.221Z,65.90
2017-11-29T14:18:02.659Z,65.90
2017-11-29T14:20:30.106Z,63.50
2017-11-29T14:22:57.541Z,64.10
2017-11-29T14:25:25.094Z,65.30
2017-11-29T14:27:53.102Z,65.70
2017-11-29T14:30:20.572Z,65.70
2017-11-29T14:32:48.005Z,66.50
2017-11-29T14:35:15.489Z,66.30
2017-11-29T14:37:42.926Z,65.20
2017-11-29T14:40:10.453Z,64.40
2017-11-29T14:42:38.079Z,63.80
2017-11-29T14:45:05.489Z,64.20
2017-11-29T14:47:33.301Z,64.60
2017-11-29T14:50:00.796Z,65.20
2017-11-29T14:52:28.464Z,64.90
2017-11-29T14:54:55.893Z,65.60
2017-11-29T14:57:23.338Z,65.30
2017-11-29T14:59:51.161Z,65.90
2017-11-29T15:02:18.609Z,65.90
2017-11-29T15:04:46.083Z,66.20
2017-11-29T15:07:13.544Z,67.00
2017-11-29T15:09:40.991Z,68.00
2017-11-29T15:12:08.434Z,67.00
2017-11-29T15:14:35.872Z,67.80
2017-11-29T15:17:03.827Z,68.20
2017-11-29T15:19:31.266Z,68.20
2017-11-29T15:21:58.702Z,67.50
2017-11-29T15:24:26.142Z,67.90
2017-11-29T15:26:53.575Z,67.80
2017-11-29T15:29:21.396Z,68.00
2017-11-29T15:31:48.850Z,68.00
2017-11-29T15:34:16.282Z,67.90
2017-11-29T15:36:44.121Z,68.00
2017-11-29T15:39:11.550Z,68.00
2017-11-29T15:41:39.631Z,68.20
2017-11-29T15:44:07.086Z,68.50
2017-11-29T15:46:34.511Z,69.10
2017-11-29T15:49:02.345Z,68.80
2017-11-29T15:51:29.892Z,68.80
2017-11-29T15:53:57.323Z,68.70
2017-11-29T15:56:24.932Z,67.30
2017-11-29T15:58:52.380Z,67.80
2017-11-29T16:01:19.793Z,67.40
2017-11-29T16:03:47.709Z,67.80
2017-11-29T16:06:15.159Z,67.80
2017-11-29T16:08:42.622Z,67.60
2017-11-29T16:11:10.058Z,67.40
2017-11-29T16:13:37.511Z,67.40
2017-11-29T16:16:05.372Z,67.60
2017-11-29T16:18:33.219Z,68.10
2017-11-29T16:21:00.641Z,68.10
2017-11-29T16:23:28.089Z,68.20
2017-11-29T16:25:55.528Z,68.70
2017-11-29T16:28:23.359Z,69.20
2017-11-29T16:30:50.801Z,69.20
2017-11-29T16:33:18.239Z,69.60
2017-11-29T16:35:46.078Z,70.20
2017-11-29T16:38:13.595Z,70.20
2017-11-29T16:40:41.089Z,70.10
2017-11-29T16:43:08.530Z,70.20
2017-11-29T16:45:36.003Z,70.40
2017-11-29T16:48:03.457Z,70.90
2017-11-29T16:50:31.551Z,70.90
2017-11-29T16:52:59.109Z,71.00
2017-11-29T16:55:26.578Z,71.00
2017-11-29T16:57:54.066Z,70.60
2017-11-29T17:00:21.923Z,70.60
2017-11-29T17:02:49.443Z,70.60
2017-11-29T17:05:17.029Z,70.80
2017-11-29T17:07:44.507Z,70.90
2017-11-29T17:10:11.956Z,70.80
2017-11-29T17:12:39.544Z,70.60
2017-11-29T17:15:07.251Z,70.70
2017-11-29T17:17:34.822Z,70.90
2017-11-29T17:20:02.526Z,70.40
2017-11-29T17:22:29.990Z,70.10
2017-11-29T17:24:57.551Z,70.10
2017-11-29T17:27:25.867Z,70.30
2017-11-29T17:30:05.865Z,70.00
2017-11-29T17:32:33.548Z,70.00
2017-11-29T17:35:01.007Z,69.90
2017-11-29T17:37:28.473Z,69.80
2017-11-29T17:39:55.989Z,70.00
2017-11-29T17:42:23.494Z,70.00
2017-11-29T17:44:50.957Z,70.20
2017-11-29T17:47:18.426Z,70.30
2017-11-29T17:49:45.901Z,70.10
2017-11-29T17:52:13.456Z,70.10
2017-11-29T17:54:41.004Z,70.40
2017-11-29T17:57:08.503Z,70.50
2017-11-29T17:59:36.435Z,70.30
2017-11-29T18:02:03.907Z,70.30
2017-11-29T18:04:32.456Z,69.50
2017-11-29T18:06:59.983Z,69.50
2017-11-29T18:09:27.817Z,69.90
2017-11-29T18:11:55.283Z,69.90
2017-11-29T18:14:22.734Z,69.80
2017-11-29T18:16:50.221Z,69.80
2017-11-29T18:19:17.697Z,69.80
2017-11-29T18:21:45.543Z,69.50
2017-11-29T18:24:13.026Z,69.50
2017-11-29T18:26:40.577Z,69.60
2017-11-29T18:29:08.158Z,69.70
2017-11-29T18:31:36.049Z,70.60
2017-11-29T18:34:03.487Z,70.60
2017-11-29T18:36:31.460Z,70.10
2017-11-29T18:38:58.961Z,70.10
2017-11-29T18:41:26.452Z,70.20
2017-11-29T18:43:54.032Z,70.50
2017-11-29T18:46:21.708Z,70.60
2017-11-29T18:48:49.247Z,70.50
2017-11-29T18:51:16.830Z,70.30
2017-11-29T18:53:44.271Z,70.40
2017-11-29T18:56:11.724Z,70.50
2017-11-29T18:58:39.268Z,70.50
2017-11-29T19:01:06.738Z,70.60
2017-11-29T19:03:34.273Z,70.60
2017-11-29T19:06:02.132Z,71.30
2017-11-29T19:08:30.094Z,71.80
2017-11-29T19:10:57.565Z,71.80
2017-11-29T19:13:25.077Z,71.30
2017-11-29T19:15:52.522Z,71.60
2017-11-29T19:18:20.009Z,71.90
2017-11-29T19:20:47.480Z,72.40
2017-11-29T19:23:14.968Z,73.10
2017-11-29T19:25:42.458Z,73.60
2017-11-29T19:28:10.318Z,74.10
2017-11-29T19:30:38.186Z,74.80
2017-11-29T19:33:06.062Z,74.90
2017-11-29T19:35:33.980Z,75.90
2017-11-29T19:38:01.446Z,75.90
2017-11-29T19:40:28.896Z,75.90
2017-11-29T19:42:56.345Z,75.90
2017-11-29T19:45:23.990Z,76.30
2017-11-29T19:47:51.834Z,77.10
2017-11-29T19:50:19.292Z,77.10
2017-11-29T19:52:46.795Z,77.40
2017-11-29T19:55:14.247Z,77.50
2017-11-29T19:57:42.143Z,77.50
2017-11-29T20:00:09.623Z,77.50
2017-11-29T20:02:37.106Z,77.90
2017-11-29T20:05:04.586Z,78.10
2017-11-29T20:07:32.689Z,78.70
2017-11-29T20:10:00.757Z,78.20
2017-11-29T20:12:28.212Z,78.20
2017-11-29T20:14:56.408Z,78.30
2017-11-29T20:17:23.916Z,78.30
2017-11-29T20:19:51.390Z,78.70
2017-11-29T20:22:18.875Z,78.60
2017-11-29T20:24:46.740Z,78.90
2017-11-29T20:27:14.721Z,78.70
2017-11-29T20:29:42.660Z,78.50
2017-11-29T20:32:10.141Z,78.50
2017-11-29T20:34:37.661Z,78.60
2017-11-29T20:39:56.051Z,78.50
2017-11-29T20:42:23.633Z,78.60
2017-11-29T20:44:51.173Z,78.50
2017-11-29T20:47:18.621Z,78.50
2017-11-29T20:49:46.328Z,78.50
2017-11-29T20:52:33.692Z,78.70
2017-11-29T20:55:01.246Z,78.50
2017-11-29T20:57:28.706Z,78.30
2017-11-29T20:59:56.159Z,78.20
2017-11-29T21:02:25.876Z,78.10
2017-11-29T21:04:53.699Z,78.00
2017-11-29T21:07:21.230Z,78.10
2017-11-29T21:09:48.700Z,78.20
2017-11-29T21:12:16.167Z,78.20
2017-11-29T21:14:43.640Z,78.10
2017-11-29T21:17:11.116Z,78.10
2017-11-29T21:19:38.975Z,78.30
2017-11-29T21:22:06.532Z,78.40
2017-11-29T21:24:33.999Z,78.30
2017-11-29T21:27:01.534Z,78.10
2017-11-29T21:29:29.130Z,78.10
2017-11-29T21:31:57.238Z,78.30
2017-11-29T21:34:25.081Z,78.30
2017-11-29T21:36:53.858Z,78.10
2017-11-29T21:39:21.306Z,78.10
2017-11-29T21:41:49.360Z,78.00
2017-11-29T21:44:16.827Z,78.00
2017-11-29T21:46:44.478Z,77.80
2017-11-29T21:49:12.116Z,77.80
2017-11-29T21:51:39.611Z,77.90
2017-11-29T21:54:07.052Z,78.00
2017-11-29T21:56:34.882Z,78.10
2017-11-29T21:59:02.320Z,78.10
2017-11-29T22:01:29.970Z,78.00
2017-11-29T22:03:58.200Z,77.90
2017-11-29T22:06:25.647Z,77.60
2017-11-29T22:08:53.194Z,77.60
2017-11-29T22:11:20.664Z,77.60
2017-11-29T22:13:48.099Z,77.70
2017-11-29T22:16:15.537Z,78.00
2017-11-29T22:18:43.386Z,78.10
2017-11-29T22:21:10.814Z,78.10
2017-11-29T22:23:38.260Z,78.10
2017-11-29T22:26:06.262Z,78.10
2017-11-29T22:28:33.688Z,77.80
2017-11-29T22:31:01.171Z,77.50
2017-11-29T22:33:29.835Z,77.50
2017-11-29T22:35:57.271Z,77.60
2017-11-29T22:38:25.838Z,77.50
2017-11-29T22:40:53.761Z,77.50
2017-11-29T22:43:21.596Z,77.60
2017-11-29T22:45:49.439Z,77.40
2017-11-29T22:48:16.890Z,77.40
2017-11-29T22:50:44.350Z,77.00
2017-11-29T22:53:11.807Z,77.10
2017-11-29T22:55:39.338Z,77.30
2017-11-29T22:58:07.125Z,77.30
2017-11-29T23:00:36.181Z,77.40
2017-11-29T23:03:15.089Z,77.90
2017-11-29T23:05:42.979Z,78.00
2017-11-29T23:08:11.864Z,78.00
2017-11-29T23:10:39.711Z,78.00
2017-11-29T23:13:07.133Z,78.00
2017-11-29T23:15:34.608Z,78.30
2017-11-29T23:18:02.062Z,78.10
2017-11-29T23:20:29.508Z,78.10
2017-11-29T23:22:56.953Z,77.70
2017-11-29T23:25:24.885Z,77.80
2017-11-29T23:27:53.206Z,77.80
2017-11-29T23:30:22.360Z,77.80
2017-11-29T23:32:50.219Z,77.90
2017-11-29T23:35:18.033Z,77.90
2017-11-29T23:37:45.886Z,77.70
2017-11-29T23:40:13.619Z,77.70
2017-11-29T23:42:42.925Z,77.80
2017-11-29T23:45:10.647Z,77.60
2017-11-29T23:47:49.183Z,77.80
2017-11-29T23:50:17.106Z,77.80
2017-11-29T23:52:44.556Z,77.90
2017-11-29T23:55:12.113Z,77.90
2017-11-29T23:57:39.573Z,77.90
